Argyle, Michigan
Current Conditions -  °F | °C
As of 5:15 PM on Monday 20 Oct 2014 (Local Time) from KCFS Reporting Station
Overcast Overcast  
Wind Chill: 55°   Ceiling: 2500
Heat Index: 55°   Visibility: 10mi
Dew Point: 48°   Wind: 3mph
Humidity: 80%   Direction: 300°WNW
Pressure: 29.79"   Gusts: NA
Location:  43.56°N, 82.94°W
Report Text: KCFS 202115Z AUTO 30003KT 10SM OVC025 13/09 A2979 RMK AO2 T01250091
Loading
Personal Weather Stations






























Interactive Weather Map New forecast layout! Learn more

10-Day Weather Forecast

Advertisements
Track Severe Weather on mobile